createdAt,value
2024-05-09T00:00:46.120Z,14.50
2024-05-09T00:03:13.988Z,12.85
2024-05-09T00:05:42.167Z,13.88
2024-05-09T00:08:10.739Z,14.40
2024-05-09T00:10:40.027Z,12.85
2024-05-09T00:13:09.774Z,12.95
2024-05-09T00:15:37.663Z,15.35
2024-05-09T00:18:07.167Z,13.88
2024-05-09T00:20:39.109Z,14.02
2024-05-09T00:23:10.751Z,15.15
2024-05-09T00:25:39.004Z,14.10
2024-05-09T00:28:07.178Z,13.32
2024-05-09T00:30:36.703Z,12.88
2024-05-09T00:33:11.032Z,13.73
2024-05-09T00:35:41.741Z,14.85
2024-05-09T00:38:10.418Z,16.58
2024-05-09T00:40:43.645Z,13.30
2024-05-09T00:43:13.138Z,16.98
2024-05-09T00:45:41.915Z,13.38
2024-05-09T00:48:13.921Z,13.60
2024-05-09T00:50:45.134Z,13.75
2024-05-09T00:53:15.740Z,12.98
2024-05-09T00:55:44.307Z,10.90
2024-05-09T00:58:14.444Z,12.10
2024-05-09T01:00:42.217Z,14.98
2024-05-09T01:03:12.127Z,11.70
2024-05-09T01:05:42.582Z,14.70
2024-05-09T01:08:13.522Z,12.18
2024-05-09T01:13:13.963Z,15.05
2024-05-09T01:15:43.558Z,14.98
2024-05-09T01:18:12.680Z,12.35
2024-05-09T01:20:43.961Z,16.55
2024-05-09T01:23:15.140Z,13.68
2024-05-09T01:25:45.671Z,15.70
2024-05-09T01:28:14.180Z,14.23
2024-05-09T01:30:41.923Z,15.23
2024-05-09T01:33:11.317Z,14.32
2024-05-09T01:35:42.762Z,15.43
2024-05-09T01:38:17.618Z,13.82
2024-05-09T01:40:46.057Z,15.00
2024-05-09T01:43:13.809Z,15.05
2024-05-09T01:45:41.543Z,13.38
2024-05-09T01:48:10.312Z,13.25
2024-05-09T01:50:43.094Z,13.90
2024-05-09T01:53:13.412Z,13.00
2024-05-09T01:55:43.239Z,13.70
2024-05-09T01:58:11.249Z,11.77
2024-05-09T02:00:42.421Z,15.18
2024-05-09T02:03:15.748Z,13.73
2024-05-09T02:05:46.916Z,13.85
2024-05-09T02:08:19.445Z,16.67
2024-05-09T02:10:48.474Z,13.52
2024-05-09T02:13:16.628Z,14.05
2024-05-09T02:15:45.411Z,12.60
2024-05-09T02:18:13.719Z,14.15
2024-05-09T02:20:43.713Z,14.45
2024-05-09T02:23:12.641Z,14.32
2024-05-09T02:25:41.414Z,13.02
2024-05-09T02:28:08.870Z,15.20
2024-05-09T02:30:40.584Z,13.75
2024-05-09T02:33:12.383Z,13.40
2024-05-09T02:35:43.091Z,13.52
2024-05-09T02:38:11.814Z,12.90
2024-05-09T02:40:40.341Z,12.73
2024-05-09T02:43:10.128Z,13.98
2024-05-09T02:45:39.821Z,13.30
2024-05-09T02:48:10.810Z,13.57
2024-05-09T02:50:40.827Z,13.48
2024-05-09T02:53:09.493Z,13.73
2024-05-09T02:55:38.522Z,14.07
2024-05-09T02:58:10.935Z,14.80
2024-05-09T03:00:41.683Z,13.43
2024-05-09T03:03:13.541Z,13.20
2024-05-09T03:05:44.821Z,14.10
2024-05-09T03:08:13.174Z,14.38
2024-05-09T03:10:40.747Z,13.68
2024-05-09T03:13:13.272Z,13.93
2024-05-09T03:15:42.618Z,14.15
2024-05-09T03:18:10.892Z,13.15
2024-05-09T03:20:39.238Z,14.35
2024-05-09T03:23:09.287Z,13.07
2024-05-09T03:25:38.748Z,12.27
2024-05-09T03:28:06.603Z,13.32
2024-05-09T03:30:40.460Z,12.88
2024-05-09T03:33:12.722Z,12.63
2024-05-09T03:35:45.799Z,13.73
2024-05-09T03:38:14.673Z,14.52
2024-05-09T03:40:47.030Z,13.10
2024-05-09T03:43:14.945Z,13.75
2024-05-09T03:45:43.539Z,13.55
2024-05-09T03:48:11.466Z,14.68
2024-05-09T03:50:39.548Z,14.10
2024-05-09T03:53:10.573Z,15.80
2024-05-09T03:55:38.229Z,21.23
2024-05-09T03:58:07.811Z,17.88
2024-05-09T04:00:39.092Z,15.32
2024-05-09T04:03:10.906Z,13.90
2024-05-09T04:05:42.007Z,15.65
2024-05-09T04:08:10.984Z,16.63
2024-05-09T04:10:39.055Z,15.07
2024-05-09T04:13:06.584Z,15.40
2024-05-09T04:15:34.112Z,14.45
2024-05-09T04:18:02.482Z,15.45
2024-05-09T04:20:38.079Z,14.68
2024-05-09T04:23:11.488Z,15.75
2024-05-09T04:25:42.325Z,14.95
2024-05-09T04:28:10.434Z,15.15
2024-05-09T04:30:40.671Z,15.98
2024-05-09T04:33:14.275Z,15.80
2024-05-09T04:35:44.047Z,17.15
2024-05-09T04:38:13.257Z,16.20
2024-05-09T04:40:41.294Z,17.30
2024-05-09T04:43:15.367Z,15.43
2024-05-09T04:45:43.870Z,15.70
2024-05-09T04:48:11.791Z,15.35
2024-05-09T04:50:40.018Z,15.50
2024-05-09T04:53:10.204Z,16.85
2024-05-09T04:55:39.911Z,15.55
2024-05-09T04:58:12.088Z,16.75
2024-05-09T05:00:41.019Z,17.13
2024-05-09T05:03:13.448Z,20.58
2024-05-09T05:05:44.886Z,17.63
2024-05-09T05:08:20.091Z,18.25
2024-05-09T05:10:48.850Z,19.23
2024-05-09T05:13:20.146Z,20.45
2024-05-09T05:15:56.431Z,20.17
2024-05-09T05:18:27.228Z,20.30
2024-05-09T05:20:56.045Z,23.15
2024-05-09T05:23:24.471Z,18.17
2024-05-09T05:25:55.051Z,25.38
2024-05-09T05:28:23.308Z,21.67
2024-05-09T05:30:51.010Z,22.25
2024-05-09T05:33:19.499Z,21.60
2024-05-09T05:35:48.452Z,22.30
2024-05-09T05:38:16.080Z,22.80
2024-05-09T05:40:43.601Z,22.02
2024-05-09T05:43:17.111Z,21.63
2024-05-09T05:45:45.187Z,22.08
2024-05-09T05:48:14.144Z,23.15
2024-05-09T05:50:42.936Z,19.05
2024-05-09T05:53:11.234Z,18.15
2024-05-09T05:55:40.247Z,16.85
2024-05-09T05:58:11.862Z,16.90
2024-05-09T06:00:41.548Z,15.15
2024-05-09T06:03:11.531Z,16.55
2024-05-09T06:05:47.056Z,17.95
2024-05-09T06:08:14.864Z,15.80
2024-05-09T06:10:43.187Z,17.45
2024-05-09T06:13:17.197Z,17.13
2024-05-09T06:15:44.706Z,16.75
2024-05-09T06:18:15.830Z,14.73
2024-05-09T06:20:44.632Z,14.85
2024-05-09T06:23:13.147Z,16.60
2024-05-09T06:25:42.217Z,17.00
2024-05-09T06:28:10.306Z,17.60
2024-05-09T06:30:40.430Z,17.50
2024-05-09T06:33:12.474Z,16.58
2024-05-09T06:35:42.537Z,16.80
2024-05-09T06:38:10.394Z,15.30
2024-05-09T06:40:41.879Z,15.70
2024-05-09T06:43:16.782Z,13.68
2024-05-09T06:45:48.435Z,14.52
2024-05-09T06:50:49.765Z,15.00
2024-05-09T06:53:21.351Z,19.15
2024-05-09T06:55:49.099Z,17.40
2024-05-09T06:58:16.850Z,17.83
2024-05-09T07:00:44.412Z,16.42
2024-05-09T07:03:16.513Z,15.50
2024-05-09T07:05:47.818Z,16.42
2024-05-09T07:08:16.914Z,18.02
2024-05-09T07:10:44.873Z,15.90
2024-05-09T07:13:15.113Z,15.50
2024-05-09T07:15:43.324Z,15.02
2024-05-09T07:18:18.563Z,15.48
2024-05-09T07:20:48.203Z,14.68
2024-05-09T07:23:16.755Z,16.02
2024-05-09T07:25:44.391Z,14.20
2024-05-09T07:28:14.711Z,13.50
2024-05-09T07:30:42.872Z,13.38
2024-05-09T07:33:16.031Z,13.68
2024-05-09T07:35:43.724Z,15.55
2024-05-09T07:38:11.212Z,17.77
2024-05-09T07:40:42.399Z,15.68
2024-05-09T07:43:13.382Z,16.55
2024-05-09T07:45:50.472Z,14.90
2024-05-09T07:52:38.756Z,11.68
2024-05-09T07:53:47.149Z,12.90
2024-05-09T07:56:20.288Z,12.30
2024-05-09T07:58:51.367Z,13.13
2024-05-09T08:01:20.017Z,14.25
2024-05-09T08:03:49.812Z,13.63
2024-05-09T08:06:17.602Z,15.13
2024-05-09T08:08:47.153Z,13.20
2024-05-09T08:11:14.672Z,13.48
2024-05-09T08:13:42.897Z,13.13
2024-05-09T08:16:10.543Z,11.77
2024-05-09T08:18:39.450Z,14.27
2024-05-09T08:21:07.083Z,11.35
2024-05-09T08:23:34.671Z,14.55
2024-05-09T08:26:02.164Z,12.65
2024-05-09T08:28:29.639Z,13.90
2024-05-09T08:30:57.302Z,11.38
2024-05-09T08:33:24.981Z,16.48
2024-05-09T08:35:54.448Z,12.43
2024-05-09T08:38:22.301Z,13.85
2024-05-09T08:40:50.676Z,13.90
2024-05-09T08:43:20.274Z,12.02
2024-05-09T08:48:19.753Z,12.13
2024-05-09T08:50:50.285Z,12.23
2024-05-09T08:53:17.975Z,12.25
2024-05-09T08:55:51.123Z,15.80
2024-05-09T08:58:22.375Z,13.02
2024-05-09T09:00:50.068Z,14.68
2024-05-09T09:03:19.660Z,11.77
2024-05-09T09:06:07.111Z,13.75
2024-05-09T09:08:39.550Z,13.63
2024-05-09T09:11:07.264Z,12.45
2024-05-09T09:13:36.052Z,12.00
2024-05-09T09:16:04.028Z,10.63
2024-05-09T09:18:33.143Z,12.02
2024-05-09T09:21:02.445Z,13.63
2024-05-09T09:23:30.703Z,11.27
2024-05-09T09:26:00.069Z,11.32
2024-05-09T09:28:27.681Z,11.55
2024-05-09T09:31:01.806Z,12.98
2024-05-09T09:33:35.381Z,11.00
2024-05-09T09:36:03.284Z,10.57
2024-05-09T09:38:31.467Z,10.90
2024-05-09T09:41:01.516Z,10.60
2024-05-09T09:43:31.796Z,13.68
2024-05-09T09:46:00.847Z,9.82
2024-05-09T09:48:31.763Z,9.80
2024-05-09T09:50:59.696Z,11.52
2024-05-09T09:53:28.714Z,11.60
2024-05-09T09:55:56.643Z,14.07
2024-05-09T09:58:24.538Z,11.73
2024-05-09T10:00:52.193Z,13.68
2024-05-09T10:03:19.753Z,11.35
2024-05-09T10:05:49.118Z,14.15
2024-05-09T10:08:18.244Z,12.00
2024-05-09T10:10:50.538Z,12.48
2024-05-09T10:13:19.998Z,12.75
2024-05-09T10:15:54.754Z,13.20
2024-05-09T10:18:29.591Z,13.32
2024-05-09T10:20:59.719Z,15.23
2024-05-09T10:23:30.935Z,13.32
2024-05-09T10:26:02.963Z,15.05
2024-05-09T10:28:41.881Z,14.23
2024-05-09T10:31:11.308Z,12.93
2024-05-09T10:33:50.756Z,15.37
2024-05-09T10:36:21.756Z,14.82
2024-05-09T10:38:50.258Z,14.30
2024-05-09T10:41:18.273Z,15.25
2024-05-09T10:43:45.758Z,15.30
2024-05-09T10:46:17.041Z,12.90
2024-05-09T10:48:45.193Z,14.25
2024-05-09T10:51:13.630Z,15.57
2024-05-09T10:53:45.679Z,17.60
2024-05-09T10:56:14.491Z,13.70
2024-05-09T10:58:42.488Z,13.45
2024-05-09T11:01:11.147Z,13.32
2024-05-09T11:03:39.595Z,14.60
2024-05-09T11:06:07.781Z,14.15
2024-05-09T11:08:36.433Z,15.75
2024-05-09T11:11:07.766Z,15.88
2024-05-09T11:13:38.389Z,13.63
2024-05-09T11:16:26.149Z,11.97
2024-05-09T11:18:58.234Z,13.70
2024-05-09T11:21:26.856Z,14.45
2024-05-09T11:23:56.973Z,14.10
2024-05-09T11:26:25.506Z,14.43
2024-05-09T11:28:53.124Z,15.38
2024-05-09T11:31:20.706Z,15.45
2024-05-09T11:33:48.522Z,14.75
2024-05-09T11:36:16.671Z,17.83
2024-05-09T11:38:44.058Z,14.85
2024-05-09T11:41:17.619Z,16.35
2024-05-09T11:43:45.036Z,16.17
2024-05-09T11:46:12.716Z,14.57
2024-05-09T11:48:41.630Z,16.08
2024-05-09T11:51:09.164Z,14.40
2024-05-09T11:53:36.531Z,13.93
2024-05-09T11:56:04.357Z,14.50
2024-05-09T11:58:36.837Z,14.10
2024-05-09T12:01:04.609Z,13.80
2024-05-09T12:03:32.482Z,15.75
2024-05-09T12:06:00.268Z,13.68
2024-05-09T12:08:28.018Z,13.20
2024-05-09T12:10:55.762Z,12.40
2024-05-09T12:13:23.567Z,13.60
2024-05-09T12:15:51.134Z,13.02
2024-05-09T12:18:18.610Z,14.13
2024-05-09T12:20:46.174Z,13.85
2024-05-09T12:23:13.590Z,11.45
2024-05-09T12:25:40.997Z,11.95
2024-05-09T12:28:08.982Z,13.75
2024-05-09T12:30:42.149Z,10.75
2024-05-09T12:33:12.917Z,11.10
2024-05-09T12:35:44.076Z,11.98
2024-05-09T12:38:14.775Z,11.68
2024-05-09T12:40:42.691Z,11.60
2024-05-09T12:43:11.348Z,10.35
2024-05-09T12:45:42.369Z,10.73
2024-05-09T12:50:41.839Z,10.82
2024-05-09T12:53:09.572Z,10.85
2024-05-09T12:55:44.816Z,14.40
2024-05-09T12:58:22.368Z,11.20
2024-05-09T13:00:51.852Z,11.50
2024-05-09T13:03:19.555Z,13.35
2024-05-09T13:05:47.495Z,11.65
2024-05-09T13:08:15.370Z,11.73
2024-05-09T13:10:43.010Z,10.38
2024-05-09T13:13:11.145Z,11.15
2024-05-09T13:15:38.955Z,11.63
2024-05-09T13:18:06.866Z,11.88
2024-05-09T13:20:36.414Z,12.02
2024-05-09T13:23:05.876Z,11.57
2024-05-09T13:25:37.369Z,11.98
2024-05-09T13:28:06.702Z,11.38
2024-05-09T13:30:39.771Z,10.50
2024-05-09T13:33:11.765Z,10.07
2024-05-09T13:35:46.706Z,11.57
2024-05-09T13:38:18.703Z,12.45
2024-05-09T13:40:46.874Z,11.15
2024-05-09T13:43:16.159Z,11.82
2024-05-09T13:45:43.885Z,12.77
2024-05-09T13:48:11.537Z,11.40
2024-05-09T13:50:42.147Z,10.82
2024-05-09T13:53:09.539Z,14.90
2024-05-09T13:55:40.789Z,12.73
2024-05-09T13:58:09.278Z,12.68
2024-05-09T14:00:45.255Z,13.55
2024-05-09T14:03:18.694Z,10.73
2024-05-09T14:05:47.957Z,12.77
2024-05-09T14:08:17.925Z,11.88
2024-05-09T14:10:47.172Z,15.07
2024-05-09T14:13:15.429Z,15.35
2024-05-09T14:15:43.121Z,12.45
2024-05-09T14:18:13.508Z,14.30
2024-05-09T14:20:42.688Z,16.55
2024-05-09T14:23:10.793Z,11.63
2024-05-09T14:25:42.392Z,11.65
2024-05-09T14:28:12.145Z,11.50
2024-05-09T14:30:40.391Z,12.68
2024-05-09T14:33:09.311Z,14.13
2024-05-09T14:35:38.414Z,18.17
2024-05-09T14:38:07.540Z,11.05
2024-05-09T14:40:41.542Z,10.55
2024-05-09T14:43:15.410Z,13.23
2024-05-09T14:45:44.571Z,10.82
2024-05-09T14:48:14.763Z,12.32
2024-05-09T14:50:42.589Z,10.70
2024-05-09T14:53:11.207Z,11.18
2024-05-09T14:55:40.657Z,12.77
2024-05-09T15:00:44.482Z,12.23
2024-05-09T15:03:15.748Z,10.48
2024-05-09T15:05:43.305Z,14.55
2024-05-09T15:08:10.815Z,10.25
2024-05-09T15:10:39.159Z,10.43
2024-05-09T15:13:08.807Z,11.30
2024-05-09T15:15:38.005Z,10.90
2024-05-09T15:18:06.379Z,9.60
2024-05-09T15:20:36.840Z,8.55
2024-05-09T15:23:07.004Z,8.38
2024-05-09T15:25:36.165Z,9.87
2024-05-09T15:28:05.130Z,9.73
2024-05-09T15:30:34.165Z,8.32
2024-05-09T15:33:07.973Z,9.00
2024-05-09T15:35:36.228Z,8.82
2024-05-09T15:38:04.623Z,8.52
2024-05-09T15:40:39.016Z,10.63
2024-05-09T15:43:10.184Z,8.82
2024-05-09T15:45:40.508Z,7.15
2024-05-09T15:48:09.868Z,9.27
2024-05-09T15:50:41.158Z,10.05
2024-05-09T15:53:12.269Z,6.95
2024-05-09T15:55:40.707Z,7.15
2024-05-09T15:58:08.490Z,9.10
2024-05-09T16:00:39.892Z,5.97
2024-05-09T16:03:11.856Z,5.45
2024-05-09T16:05:41.494Z,7.18
2024-05-09T16:08:09.558Z,6.63
2024-05-09T16:10:43.425Z,6.50
2024-05-09T16:13:12.363Z,6.90
2024-05-09T16:15:40.233Z,7.50
2024-05-09T16:18:08.292Z,5.70
2024-05-09T16:20:40.196Z,6.22
2024-05-09T16:23:10.289Z,5.68
2024-05-09T16:25:39.059Z,6.22
2024-05-09T16:28:09.950Z,6.60
2024-05-09T16:30:39.417Z,5.90
2024-05-09T16:33:07.907Z,8.23
2024-05-09T16:35:35.933Z,7.10
2024-05-09T16:38:04.164Z,6.55
2024-05-09T16:40:38.301Z,7.10
2024-05-09T16:43:12.938Z,7.30
2024-05-09T16:45:44.120Z,5.93
2024-05-09T16:48:12.366Z,6.90
2024-05-09T16:50:39.790Z,7.20
2024-05-09T16:53:07.484Z,8.15
2024-05-09T16:55:36.909Z,7.03
2024-05-09T16:58:06.692Z,7.25
2024-05-09T17:00:40.819Z,7.10
2024-05-09T17:03:14.008Z,7.85
2024-05-09T17:05:43.192Z,8.18
2024-05-09T17:08:11.436Z,8.70
2024-05-09T17:10:39.053Z,9.77
2024-05-09T17:13:07.845Z,9.35
2024-05-09T17:15:37.802Z,7.07
2024-05-09T17:18:07.362Z,6.75
2024-05-09T17:20:38.016Z,6.57
2024-05-09T17:25:43.239Z,6.65
2024-05-09T17:28:11.723Z,7.15
2024-05-09T17:30:43.016Z,8.07
2024-05-09T17:33:11.644Z,7.45
2024-05-09T17:35:40.186Z,7.72
2024-05-09T17:38:08.737Z,6.00
2024-05-09T17:40:38.067Z,6.53
2024-05-09T17:43:09.089Z,7.75
2024-05-09T17:45:41.888Z,6.05
2024-05-09T17:48:12.021Z,8.98
2024-05-09T17:50:40.752Z,6.93
2024-05-09T17:53:09.213Z,7.20
2024-05-09T17:55:37.109Z,6.22
2024-05-09T17:58:05.498Z,9.73
2024-05-09T18:00:39.104Z,7.95
2024-05-09T18:03:13.991Z,8.57
2024-05-09T18:05:43.444Z,9.85
2024-05-09T18:08:12.336Z,9.10
2024-05-09T18:10:41.374Z,12.90
2024-05-09T18:13:10.046Z,10.43
2024-05-09T18:15:42.839Z,11.73
2024-05-09T18:18:11.660Z,10.32
2024-05-09T18:20:44.036Z,9.05
2024-05-09T18:23:16.372Z,10.52
2024-05-09T18:25:45.839Z,11.07
2024-05-09T18:28:13.728Z,10.23
2024-05-09T18:30:41.542Z,10.10
2024-05-09T18:33:11.484Z,11.18
2024-05-09T18:35:42.808Z,10.48
2024-05-09T18:38:10.559Z,9.63
2024-05-09T18:40:39.018Z,12.32
2024-05-09T18:43:08.983Z,9.90
2024-05-09T18:45:38.182Z,10.48
2024-05-09T18:48:07.947Z,11.98
2024-05-09T18:50:39.527Z,10.60
2024-05-09T18:53:10.666Z,11.13
2024-05-09T18:55:39.157Z,10.57
2024-05-09T18:58:07.332Z,11.30
2024-05-09T19:00:38.418Z,11.65
2024-05-09T19:03:10.943Z,12.75
2024-05-09T19:05:42.777Z,10.73
2024-05-09T19:08:12.636Z,10.48
2024-05-09T19:10:40.657Z,10.55
2024-05-09T19:13:12.117Z,10.73
2024-05-09T19:15:42.451Z,9.70
2024-05-09T19:18:14.470Z,9.80
2024-05-09T19:20:45.662Z,10.55
2024-05-09T19:23:13.253Z,11.77
2024-05-09T19:25:40.893Z,12.63
2024-05-09T19:28:08.491Z,11.45
2024-05-09T19:30:40.408Z,10.20
2024-05-09T19:33:13.104Z,10.05
2024-05-09T19:35:42.315Z,10.60
2024-05-09T19:38:09.890Z,9.35
2024-05-09T19:40:37.383Z,9.63
2024-05-09T19:43:06.948Z,11.20
2024-05-09T19:45:35.619Z,10.82
2024-05-09T19:48:05.327Z,13.55
2024-05-09T19:50:41.285Z,9.93
2024-05-09T19:53:15.122Z,9.77
2024-05-09T19:55:43.085Z,9.70
2024-05-09T19:58:12.102Z,9.45
2024-05-09T20:00:42.433Z,10.85
2024-05-09T20:03:12.454Z,9.70
2024-05-09T20:05:42.499Z,12.32
2024-05-09T20:08:10.206Z,10.07
2024-05-09T20:10:38.160Z,12.15
2024-05-09T20:13:07.137Z,10.07
2024-05-09T20:15:37.098Z,9.15
2024-05-09T20:18:05.630Z,9.98
2024-05-09T20:20:39.068Z,10.55
2024-05-09T20:23:10.375Z,9.50
2024-05-09T20:25:37.922Z,8.90
2024-05-09T20:28:06.595Z,8.93
2024-05-09T20:30:35.773Z,10.30
2024-05-09T20:33:05.899Z,9.73
2024-05-09T20:38:04.512Z,7.65
2024-05-09T20:40:36.946Z,9.37
2024-05-09T20:43:10.641Z,11.35
2024-05-09T20:45:40.975Z,9.07
2024-05-09T20:48:09.463Z,8.43
2024-05-09T20:50:40.734Z,7.82
2024-05-09T20:53:12.582Z,8.45
2024-05-09T20:55:41.416Z,9.80
2024-05-09T20:58:09.708Z,9.00
2024-05-09T21:00:41.128Z,7.85
2024-05-09T21:03:12.973Z,9.23
2024-05-09T21:05:41.417Z,8.60
2024-05-09T21:08:09.347Z,9.38
2024-05-09T21:10:37.611Z,7.95
2024-05-09T21:13:06.827Z,8.32
2024-05-09T21:15:36.010Z,7.75
2024-05-09T21:18:04.560Z,7.32
2024-05-09T21:20:34.615Z,7.35
2024-05-09T21:23:03.547Z,7.88
2024-05-09T21:25:31.981Z,8.18
2024-05-09T21:28:00.586Z,9.07
2024-05-09T21:30:37.954Z,9.05
2024-05-09T21:33:11.100Z,7.97
2024-05-09T21:38:08.193Z,8.43
2024-05-09T21:40:37.318Z,10.98
2024-05-09T21:43:07.711Z,9.77
2024-05-09T21:45:36.546Z,10.20
2024-05-09T21:48:05.122Z,9.77
2024-05-09T21:50:39.407Z,10.20
2024-05-09T21:53:10.492Z,9.75
2024-05-09T21:55:38.010Z,9.00
2024-05-09T21:58:05.763Z,9.93
2024-05-09T22:00:37.860Z,10.90
2024-05-09T22:03:08.344Z,12.18
2024-05-09T22:05:37.714Z,11.80
2024-05-09T22:08:05.790Z,9.15
2024-05-09T22:10:35.631Z,9.30
2024-05-09T22:13:05.920Z,10.68
2024-05-09T22:15:39.702Z,10.27
2024-05-09T22:18:09.305Z,9.25
2024-05-09T22:20:43.911Z,11.18
2024-05-09T22:23:12.610Z,10.35
2024-05-09T22:25:40.065Z,11.60
2024-05-09T22:28:07.595Z,11.32
2024-05-09T22:30:38.472Z,10.57
2024-05-09T22:33:09.699Z,12.52
2024-05-09T22:35:38.706Z,12.88
2024-05-09T22:38:06.465Z,13.18
2024-05-09T22:40:44.783Z,14.93
2024-05-09T22:43:24.089Z,12.77
2024-05-09T22:45:54.931Z,16.63
2024-05-09T22:48:24.375Z,17.00
2024-05-09T22:50:53.022Z,16.45
2024-05-09T22:53:22.643Z,17.08
2024-05-09T22:55:50.112Z,15.65
2024-05-09T22:58:17.585Z,18.90
2024-05-09T23:00:45.150Z,16.80
2024-05-09T23:03:15.933Z,16.77
2024-05-09T23:08:10.849Z,19.13
2024-05-09T23:10:39.946Z,20.85
2024-05-09T23:13:08.363Z,21.75
2024-05-09T23:15:37.481Z,21.02
2024-05-09T23:18:05.523Z,22.33
2024-05-09T23:20:37.981Z,21.30
2024-05-09T23:23:08.752Z,22.98
2024-05-09T23:25:37.033Z,21.13
2024-05-09T23:28:04.995Z,22.05
2024-05-09T23:30:37.820Z,21.88
2024-05-09T23:33:10.093Z,19.88
2024-05-09T23:35:40.782Z,22.98
2024-05-09T23:38:08.229Z,24.13
2024-05-09T23:40:39.586Z,26.90
2024-05-09T23:43:10.382Z,23.85
2024-05-09T23:45:38.564Z,25.15
2024-05-09T23:48:06.575Z,27.90
2024-05-09T23:50:37.522Z,27.55
2024-05-09T23:53:08.095Z,27.77
2024-05-09T23:55:36.873Z,27.98
2024-05-09T23:58:04.815Z,28.58
